createdAt,value
2023-02-04T00:00:39.382Z,8.00
2023-02-04T00:03:06.488Z,8.00
2023-02-04T00:05:33.682Z,7.90
2023-02-04T00:08:04.172Z,8.00
2023-02-04T00:10:31.351Z,8.00
2023-02-04T00:12:58.666Z,8.00
2023-02-04T00:15:25.800Z,8.00
2023-02-04T00:17:52.824Z,8.00
2023-02-04T00:20:20.243Z,8.00
2023-02-04T00:22:47.446Z,8.00
2023-02-04T00:25:14.717Z,8.00
2023-02-04T00:27:41.706Z,8.00
2023-02-04T00:30:11.986Z,8.00
2023-02-04T00:32:41.242Z,8.00
2023-02-04T00:35:13.774Z,8.00
2023-02-04T00:37:40.758Z,7.90
2023-02-04T00:40:10.586Z,7.90
2023-02-04T00:42:39.163Z,7.90
2023-02-04T00:45:09.485Z,7.90
2023-02-04T00:47:36.684Z,7.90
2023-02-04T00:50:05.113Z,7.90
2023-02-04T00:52:32.257Z,7.90
2023-02-04T00:54:59.343Z,7.90
2023-02-04T00:57:26.384Z,7.90
2023-02-04T00:59:53.430Z,7.80
2023-02-04T01:02:20.389Z,7.80
2023-02-04T01:04:47.425Z,7.90
2023-02-04T01:07:14.801Z,7.80
2023-02-04T01:09:41.879Z,7.80
2023-02-04T01:12:09.066Z,7.80
2023-02-04T01:14:36.052Z,7.90
2023-02-04T01:17:05.638Z,7.90
2023-02-04T01:19:32.639Z,7.90
2023-02-04T01:21:59.796Z,7.90
2023-02-04T01:24:27.199Z,7.90
2023-02-04T01:27:12.663Z,7.80
2023-02-04T01:29:39.702Z,7.90
2023-02-04T01:32:06.684Z,7.90
2023-02-04T01:34:33.683Z,7.90
2023-02-04T01:37:00.776Z,7.90
2023-02-04T01:39:27.772Z,7.80
2023-02-04T01:41:54.951Z,7.90
2023-02-04T01:44:22.000Z,7.90
2023-02-04T01:46:49.350Z,7.90
2023-02-04T01:49:17.580Z,7.80
2023-02-04T01:51:44.718Z,7.80
2023-02-04T01:54:13.887Z,7.80
2023-02-04T01:56:44.718Z,7.80
2023-02-04T01:59:16.531Z,7.80
2023-02-04T02:01:46.302Z,7.80
2023-02-04T02:04:16.628Z,7.80
2023-02-04T02:06:49.272Z,7.80
2023-02-04T02:09:16.592Z,7.80
2023-02-04T02:11:43.919Z,7.80
2023-02-04T02:14:11.904Z,7.70
2023-02-04T02:16:38.973Z,7.70
2023-02-04T02:19:07.680Z,7.80
2023-02-04T02:21:58.611Z,7.70
2023-02-04T02:24:28.664Z,7.70
2023-02-04T02:26:57.251Z,7.70
2023-02-04T02:29:25.936Z,7.70
2023-02-04T02:31:54.058Z,7.70
2023-02-04T02:34:21.110Z,7.70
2023-02-04T02:36:48.228Z,7.70
2023-02-04T02:39:16.757Z,7.70
2023-02-04T02:41:43.941Z,7.70
2023-02-04T02:44:12.788Z,7.60
2023-02-04T02:46:40.266Z,7.60
2023-02-04T02:49:18.042Z,7.60
2023-02-04T02:51:45.848Z,7.60
2023-02-04T02:54:22.568Z,7.60
2023-02-04T02:56:51.679Z,7.60
2023-02-04T02:59:19.840Z,7.70
2023-02-04T03:01:51.207Z,7.60
2023-02-04T03:04:20.713Z,7.60
2023-02-04T03:06:47.975Z,7.60
2023-02-04T03:09:15.150Z,7.60
2023-02-04T03:11:42.461Z,7.50
2023-02-04T03:14:44.996Z,7.50
2023-02-04T03:17:56.250Z,7.50
2023-02-04T03:21:20.145Z,7.50
2023-02-04T03:23:51.950Z,7.50
2023-02-04T03:26:19.256Z,7.50
2023-02-04T03:28:46.351Z,7.40
2023-02-04T03:31:13.486Z,7.40
2023-02-04T03:33:40.567Z,7.40
2023-02-04T03:36:08.307Z,7.40
2023-02-04T03:38:35.288Z,7.40
2023-02-04T03:41:02.354Z,7.40
2023-02-04T03:43:29.451Z,7.40
2023-02-04T03:45:56.565Z,7.40
2023-02-04T03:48:23.665Z,7.30
2023-02-04T03:50:50.648Z,7.30
2023-02-04T03:53:17.748Z,7.40
2023-02-04T03:55:44.846Z,7.40
2023-02-04T03:58:11.851Z,7.40
2023-02-04T04:00:38.848Z,7.40
2023-02-04T04:03:05.893Z,7.40
2023-02-04T04:05:33.949Z,7.40
2023-02-04T04:08:01.026Z,7.40
2023-02-04T04:10:29.534Z,7.40
2023-02-04T04:12:57.008Z,7.40
2023-02-04T04:15:25.098Z,7.40
2023-02-04T04:17:52.083Z,7.40
2023-02-04T04:20:19.229Z,7.40
2023-02-04T04:22:46.198Z,7.40
2023-02-04T04:25:13.282Z,7.40
2023-02-04T04:27:40.337Z,7.40
2023-02-04T04:30:07.667Z,7.40
2023-02-04T04:32:34.638Z,7.40
2023-02-04T04:35:01.692Z,7.40
2023-02-04T04:37:28.646Z,7.40
2023-02-04T04:39:55.960Z,7.40
2023-02-04T04:42:22.921Z,7.40
2023-02-04T04:44:49.970Z,7.40
2023-02-04T04:47:17.034Z,7.40
2023-02-04T04:49:44.115Z,7.40
2023-02-04T04:52:11.208Z,7.40
2023-02-04T04:54:38.244Z,7.40
2023-02-04T04:57:05.495Z,7.40
2023-02-04T04:59:32.572Z,7.40
2023-02-04T05:01:59.624Z,7.40
2023-02-04T05:04:26.692Z,7.40
2023-02-04T05:06:53.742Z,7.40
2023-02-04T05:09:20.984Z,7.30
2023-02-04T05:11:48.082Z,7.30
2023-02-04T05:14:15.121Z,7.20
2023-02-04T05:16:42.353Z,7.10
2023-02-04T05:19:09.422Z,7.10
2023-02-04T05:21:36.379Z,7.00
2023-02-04T05:24:03.481Z,7.00
2023-02-04T05:26:31.433Z,6.90
2023-02-04T05:29:02.862Z,7.00
2023-02-04T05:31:30.059Z,7.00
2023-02-04T05:33:57.136Z,7.10
2023-02-04T05:36:24.433Z,7.10
2023-02-04T05:38:51.837Z,7.10
2023-02-04T05:41:18.846Z,7.10
2023-02-04T05:43:46.030Z,7.10
2023-02-04T05:46:17.842Z,7.10
2023-02-04T05:48:44.915Z,7.20
2023-02-04T05:51:11.950Z,7.20
2023-02-04T05:53:39.158Z,7.20
2023-02-04T05:56:06.442Z,7.20
2023-02-04T05:58:33.699Z,7.20
2023-02-04T06:01:02.397Z,7.20
2023-02-04T06:03:32.986Z,7.20
2023-02-04T06:06:01.133Z,7.30
2023-02-04T06:08:28.258Z,7.30
2023-02-04T06:11:09.267Z,7.30
2023-02-04T06:13:36.356Z,7.30
2023-02-04T06:16:03.432Z,7.30
2023-02-04T06:18:36.361Z,7.30
2023-02-04T06:21:06.589Z,7.30
2023-02-04T06:23:34.619Z,7.30
2023-02-04T06:26:10.084Z,7.30
2023-02-04T06:28:37.491Z,7.30
2023-02-04T06:31:13.365Z,7.30
2023-02-04T06:33:46.458Z,7.30
2023-02-04T06:36:16.232Z,7.30
2023-02-04T06:38:43.290Z,7.30
2023-02-04T06:41:10.377Z,7.30
2023-02-04T06:43:44.966Z,7.40
2023-02-04T06:46:12.345Z,7.40
2023-02-04T06:48:39.440Z,7.40
2023-02-04T06:51:16.243Z,7.40
2023-02-04T06:53:46.695Z,7.40
2023-02-04T06:56:13.717Z,7.40
2023-02-04T06:58:40.802Z,7.40
2023-02-04T07:01:12.109Z,7.40
2023-02-04T07:03:40.358Z,7.40
2023-02-04T07:06:08.278Z,7.40
2023-02-04T07:08:37.969Z,7.40
2023-02-04T07:11:05.206Z,7.40
2023-02-04T07:13:32.253Z,7.40
2023-02-04T07:15:59.169Z,7.40
2023-02-04T07:18:27.702Z,7.40
2023-02-04T07:20:57.805Z,7.40
2023-02-04T07:23:25.516Z,7.40
2023-02-04T07:25:57.432Z,7.40
2023-02-04T07:28:28.637Z,7.40
2023-02-04T07:30:55.847Z,7.50
2023-02-04T07:33:23.020Z,7.50
2023-02-04T07:35:51.381Z,7.50
2023-02-04T07:38:19.150Z,7.50
2023-02-04T07:40:46.374Z,7.50
2023-02-04T07:43:13.990Z,7.50
2023-02-04T07:45:47.310Z,7.50
2023-02-04T07:48:14.471Z,7.50
2023-02-04T07:50:41.659Z,7.50
2023-02-04T07:53:11.754Z,7.50
2023-02-04T07:55:38.899Z,7.50
2023-02-04T07:58:06.159Z,7.60
2023-02-04T08:00:34.541Z,7.60
2023-02-04T08:03:01.911Z,7.60
2023-02-04T08:05:32.224Z,7.60
2023-02-04T08:07:59.306Z,7.60
2023-02-04T08:10:26.241Z,7.60
2023-02-04T08:12:53.392Z,7.60
2023-02-04T08:15:20.581Z,7.60
2023-02-04T08:17:47.674Z,7.60
2023-02-04T08:20:14.921Z,7.70
2023-02-04T08:22:42.175Z,7.60
2023-02-04T08:25:11.835Z,7.70
2023-02-04T08:27:39.433Z,7.70
2023-02-04T08:30:07.193Z,7.70
2023-02-04T08:32:34.560Z,7.70
2023-02-04T08:35:01.739Z,7.70
2023-02-04T08:37:29.274Z,7.70
2023-02-04T08:39:57.554Z,7.80
2023-02-04T08:42:24.727Z,7.80
2023-02-04T08:44:54.738Z,7.80
2023-02-04T08:47:22.137Z,7.90
2023-02-04T08:49:54.092Z,7.90
2023-02-04T08:52:32.106Z,7.90
2023-02-04T08:54:59.199Z,7.90
2023-02-04T08:57:28.917Z,7.90
2023-02-04T08:59:55.990Z,7.90
2023-02-04T09:02:25.836Z,7.90
2023-02-04T09:04:52.959Z,8.00
2023-02-04T09:07:21.103Z,7.90
2023-02-04T09:09:48.038Z,8.00
2023-02-04T09:12:15.718Z,8.00
2023-02-04T09:14:43.053Z,8.00
2023-02-04T09:17:10.114Z,8.00
2023-02-04T09:19:37.306Z,8.00
2023-02-04T09:22:04.329Z,8.10
2023-02-04T09:24:31.450Z,8.10
2023-02-04T09:27:02.940Z,8.10
2023-02-04T09:29:30.254Z,8.10
2023-02-04T09:31:59.975Z,8.20
2023-02-04T09:34:31.628Z,8.20
2023-02-04T09:37:03.930Z,8.20
2023-02-04T09:39:32.180Z,8.20
2023-02-04T09:41:59.754Z,8.30
2023-02-04T09:44:28.923Z,8.30
2023-02-04T09:47:01.396Z,8.30
2023-02-04T09:49:29.118Z,8.30
2023-02-04T09:51:59.766Z,8.30
2023-02-04T09:54:29.335Z,8.40
2023-02-04T09:57:00.530Z,8.30
2023-02-04T09:59:29.625Z,8.40
2023-02-04T10:02:13.846Z,8.50
2023-02-04T10:04:41.026Z,8.50
2023-02-04T10:07:12.262Z,8.50
2023-02-04T10:09:47.578Z,8.60
2023-02-04T10:12:14.889Z,8.60
2023-02-04T10:14:42.301Z,8.70
2023-02-04T10:17:10.229Z,8.80
2023-02-04T10:19:37.550Z,8.70
2023-02-04T10:22:16.195Z,8.80
2023-02-04T10:24:43.421Z,8.80
2023-02-04T10:27:13.575Z,8.80
2023-02-04T10:29:43.947Z,8.90
2023-02-04T10:32:32.382Z,8.80
2023-02-04T10:35:19.273Z,8.90
2023-02-04T10:37:47.839Z,9.00
2023-02-04T10:40:36.395Z,9.00
2023-02-04T10:43:11.586Z,9.10
2023-02-04T10:45:41.303Z,9.20
2023-02-04T10:48:28.831Z,9.20
2023-02-04T10:51:07.598Z,9.20
2023-02-04T10:53:53.574Z,9.20
2023-02-04T10:56:22.217Z,9.20
2023-02-04T10:58:51.745Z,9.30
2023-02-04T11:01:21.740Z,9.30
2023-02-04T11:03:51.020Z,9.40
2023-02-04T11:06:44.241Z,9.40
2023-02-04T11:09:16.676Z,9.40
2023-02-04T11:11:48.968Z,9.50
2023-02-04T11:14:40.556Z,9.30
2023-02-04T11:17:07.696Z,9.40
2023-02-04T11:19:38.240Z,9.40
2023-02-04T11:22:36.267Z,9.40
2023-02-04T11:25:03.656Z,9.50
2023-02-04T11:27:41.160Z,9.50
2023-02-04T11:30:21.262Z,9.50
2023-02-04T11:33:05.944Z,9.40
2023-02-04T11:35:33.565Z,9.40
2023-02-04T11:38:03.053Z,9.40
2023-02-04T11:40:38.403Z,9.50
2023-02-04T11:43:15.418Z,9.60
2023-02-04T11:45:43.267Z,9.60
2023-02-04T11:48:16.377Z,9.70
2023-02-04T11:50:54.566Z,9.70
2023-02-04T11:53:36.414Z,9.40
2023-02-04T11:56:03.883Z,9.60
2023-02-04T11:58:32.113Z,9.60
2023-02-04T12:00:59.615Z,9.60
2023-02-04T12:03:30.791Z,9.60
2023-02-04T12:05:59.317Z,9.60
2023-02-04T12:08:35.463Z,9.70
2023-02-04T12:11:11.400Z,9.60
2023-02-04T12:13:54.036Z,9.60
2023-02-04T12:16:21.269Z,9.70
2023-02-04T12:18:49.008Z,9.70
2023-02-04T12:21:16.714Z,9.70
2023-02-04T12:23:43.861Z,9.80
2023-02-04T12:26:12.066Z,9.70
2023-02-04T12:28:39.718Z,9.70
2023-02-04T12:31:07.413Z,9.80
2023-02-04T12:33:34.434Z,9.80
2023-02-04T12:36:01.523Z,9.80
2023-02-04T12:38:28.612Z,9.80
2023-02-04T12:40:55.713Z,9.90
2023-02-04T12:43:22.838Z,9.90
2023-02-04T12:45:50.131Z,9.90
2023-02-04T12:48:18.068Z,9.90
2023-02-04T12:50:52.775Z,9.80
2023-02-04T12:53:19.943Z,9.80
2023-02-04T12:55:48.689Z,9.80
2023-02-04T12:58:15.834Z,9.80
2023-02-04T13:00:43.252Z,9.80
2023-02-04T13:03:10.537Z,9.70
2023-02-04T13:05:41.114Z,9.70
2023-02-04T13:08:09.272Z,9.70
2023-02-04T13:10:36.693Z,9.70
2023-02-04T13:13:04.772Z,9.70
2023-02-04T13:15:32.228Z,9.70
2023-02-04T13:18:02.047Z,9.60
2023-02-04T13:20:30.113Z,9.70
2023-02-04T13:22:58.407Z,9.60
2023-02-04T13:25:25.567Z,9.60
2023-02-04T13:28:00.424Z,9.60
2023-02-04T13:30:27.802Z,9.60
2023-02-04T13:32:56.782Z,9.50
2023-02-04T13:35:27.271Z,9.60
2023-02-04T13:38:02.251Z,9.50
2023-02-04T13:40:36.931Z,9.50
2023-02-04T13:43:04.220Z,9.50
2023-02-04T13:45:32.260Z,9.50
2023-02-04T13:47:59.645Z,9.50
2023-02-04T13:50:26.942Z,9.50
2023-02-04T13:52:58.454Z,9.50
2023-02-04T13:55:25.599Z,9.50
2023-02-04T13:57:52.863Z,9.50
2023-02-04T14:00:24.116Z,9.60
2023-02-04T14:02:53.777Z,9.60
2023-02-04T14:05:20.923Z,9.60
2023-02-04T14:07:48.144Z,9.60
2023-02-04T14:10:16.936Z,9.70
2023-02-04T14:12:44.138Z,9.70
2023-02-04T14:15:11.591Z,9.70
2023-02-04T14:17:38.713Z,9.60
2023-02-04T15:12:29.498Z,9.50
2023-02-04T15:14:56.533Z,9.40
2023-02-04T15:17:23.720Z,9.40
2023-02-04T15:19:50.847Z,9.40
2023-02-04T15:22:17.920Z,9.40
2023-02-04T15:24:44.974Z,9.40
2023-02-04T15:27:11.927Z,9.50
2023-02-04T15:29:38.929Z,9.50
2023-02-04T15:32:06.549Z,9.50
2023-02-04T15:34:35.913Z,9.50
2023-02-04T15:37:03.087Z,9.40
2023-02-04T15:39:38.201Z,9.40
2023-02-04T15:42:05.367Z,9.30
2023-02-04T15:44:32.803Z,9.20
2023-02-04T15:46:59.848Z,9.20
2023-02-04T15:49:26.892Z,9.10
2023-02-04T15:51:53.983Z,9.10
2023-02-04T15:54:20.965Z,9.10
2023-02-04T15:56:47.910Z,9.10
2023-02-04T15:59:16.017Z,9.00
2023-02-04T16:01:43.067Z,9.00
2023-02-04T16:04:10.126Z,9.00
2023-02-04T16:06:43.048Z,8.90
2023-02-04T16:09:12.036Z,9.00
2023-02-04T16:11:40.907Z,8.90
2023-02-04T16:14:07.894Z,8.90
2023-02-04T16:16:34.988Z,8.90
2023-02-04T16:19:02.072Z,9.00
2023-02-04T16:21:29.193Z,9.00
2023-02-04T16:23:56.690Z,8.90
2023-02-04T16:26:23.688Z,8.90
2023-02-04T16:28:50.753Z,8.90
2023-02-04T16:31:19.262Z,8.90
2023-02-04T16:33:46.337Z,8.90
2023-02-04T16:36:13.824Z,8.90
2023-02-04T16:38:44.023Z,8.80
2023-02-04T16:41:11.653Z,8.80
2023-02-04T16:43:38.637Z,8.80
2023-02-04T16:46:06.031Z,8.80
2023-02-04T16:48:33.134Z,8.80
2023-02-04T16:51:00.374Z,8.80
2023-02-04T16:53:27.481Z,8.80
2023-02-04T16:55:55.753Z,8.80
2023-02-04T16:58:23.266Z,8.80
2023-02-04T17:00:50.323Z,8.80
2023-02-04T17:03:17.437Z,8.70
2023-02-04T17:05:44.544Z,8.70
2023-02-04T17:08:13.580Z,8.60
2023-02-04T17:11:00.148Z,8.70
2023-02-04T17:13:27.557Z,8.70
2023-02-04T17:16:00.639Z,8.70
2023-02-04T17:18:30.691Z,8.70
2023-02-04T17:20:58.620Z,8.70
2023-02-04T17:23:26.926Z,8.70
2023-02-04T17:25:54.193Z,8.70
2023-02-04T17:28:21.407Z,8.70
2023-02-04T17:30:48.465Z,8.70
2023-02-04T17:33:15.694Z,8.70
2023-02-04T17:35:42.651Z,8.70
2023-02-04T17:38:09.585Z,8.70
2023-02-04T17:40:36.661Z,8.70
2023-02-04T17:43:04.007Z,8.70
2023-02-04T17:45:31.506Z,8.70
2023-02-04T17:47:58.725Z,8.70
2023-02-04T17:50:25.989Z,8.70
2023-02-04T17:52:53.060Z,8.70
2023-02-04T17:55:31.464Z,8.70
2023-02-04T17:58:01.382Z,8.70
2023-02-04T18:00:31.493Z,8.70
2023-02-04T18:02:58.832Z,8.70
2023-02-04T18:05:28.825Z,8.70
2023-02-04T18:08:11.392Z,8.70
2023-02-04T18:10:41.074Z,8.70
2023-02-04T18:13:20.077Z,8.70
2023-02-04T18:15:51.483Z,8.70
2023-02-04T18:18:35.973Z,8.70
2023-02-04T18:21:26.160Z,8.70
2023-02-04T18:24:18.583Z,8.70
2023-02-04T18:26:53.927Z,8.70
2023-02-04T18:29:26.570Z,8.70
2023-02-04T18:31:57.200Z,8.70
2023-02-04T18:34:38.508Z,8.70
2023-02-04T18:37:30.269Z,8.70
2023-02-04T18:40:09.530Z,8.70
2023-02-04T18:42:44.991Z,8.70
2023-02-04T18:45:34.074Z,8.70
2023-02-04T18:48:17.648Z,8.70
2023-02-04T18:50:46.372Z,8.70
2023-02-04T18:53:16.201Z,8.70
2023-02-04T18:55:59.624Z,8.70
2023-02-04T18:58:34.089Z,8.70
2023-02-04T19:01:07.761Z,8.70
2023-02-04T19:03:42.370Z,8.70
2023-02-04T19:06:38.298Z,8.70
2023-02-04T19:09:18.411Z,8.70
2023-02-04T19:11:55.758Z,8.70
2023-02-04T19:14:40.626Z,8.70
2023-02-04T19:17:27.788Z,8.70
2023-02-04T19:19:58.122Z,8.70
2023-02-04T19:22:49.740Z,8.70
2023-02-04T19:25:33.885Z,8.70
2023-02-04T19:28:14.226Z,8.70
2023-02-04T19:30:46.277Z,8.70
2023-02-04T19:33:20.747Z,8.70
2023-02-04T19:35:49.147Z,8.70
2023-02-04T19:38:39.469Z,8.70
2023-02-04T19:41:27.554Z,8.70
2023-02-04T19:44:36.270Z,8.70
2023-02-04T19:47:40.685Z,8.80
2023-02-04T19:50:20.442Z,8.80
2023-02-04T19:52:50.177Z,8.70
2023-02-04T19:55:17.132Z,8.70
2023-02-04T19:57:54.191Z,8.70
2023-02-04T20:00:30.428Z,8.70
2023-02-04T20:02:57.874Z,8.70
2023-02-04T20:05:29.478Z,8.70
2023-02-04T20:07:59.736Z,8.60
2023-02-04T20:10:28.668Z,8.60
2023-02-04T20:13:07.149Z,8.60
2023-02-04T20:15:37.044Z,8.60
2023-02-04T20:18:20.394Z,8.60
2023-02-04T20:20:47.691Z,8.50
2023-02-04T20:23:31.970Z,8.50
2023-02-04T20:26:01.674Z,8.50
2023-02-04T20:28:36.439Z,8.60
2023-02-04T20:31:22.914Z,8.50
2023-02-04T20:33:55.391Z,8.50
2023-02-04T20:36:28.924Z,8.50
2023-02-04T20:39:09.280Z,8.50
2023-02-04T20:41:38.724Z,8.50
2023-02-04T20:44:17.159Z,8.50
2023-02-04T20:46:44.664Z,8.60
2023-02-04T20:49:26.263Z,8.50
2023-02-04T20:52:00.236Z,8.60
2023-02-04T20:54:31.314Z,8.50
2023-02-04T20:57:20.773Z,8.60
2023-02-04T20:59:50.049Z,8.50
2023-02-04T21:02:18.613Z,8.50
2023-02-04T21:04:54.005Z,8.50
2023-02-04T21:07:26.050Z,8.50
2023-02-04T21:09:53.933Z,8.50
2023-02-04T21:12:21.872Z,8.50
2023-02-04T21:14:53.360Z,8.50
2023-02-04T21:17:20.827Z,8.50
2023-02-04T21:19:48.648Z,8.50
2023-02-04T21:22:23.425Z,8.50
2023-02-04T21:24:51.256Z,8.50
2023-02-04T21:27:22.255Z,8.40
2023-02-04T21:29:49.949Z,8.40
2023-02-04T21:32:18.997Z,8.50
2023-02-04T21:34:46.435Z,8.40
2023-02-04T21:37:13.927Z,8.40
2023-02-04T21:39:41.435Z,8.40
2023-02-04T21:42:12.247Z,8.50
2023-02-04T21:44:40.253Z,8.50
2023-02-04T21:47:07.938Z,8.50
2023-02-04T21:49:42.641Z,8.50
2023-02-04T21:52:10.303Z,8.50
2023-02-04T21:54:37.738Z,8.50
2023-02-04T21:57:05.250Z,8.50
2023-02-04T21:59:32.555Z,8.40
2023-02-04T22:02:00.217Z,8.40
2023-02-04T22:04:34.970Z,8.40
2023-02-04T22:07:03.110Z,8.40
2023-02-04T22:09:33.636Z,8.40
2023-02-04T22:12:04.531Z,8.40
2023-02-04T22:14:31.810Z,8.40
2023-02-04T22:16:59.068Z,8.40
2023-02-04T22:19:26.284Z,8.40
2023-02-04T22:21:53.502Z,8.40
2023-02-04T22:24:20.846Z,8.40
2023-02-04T22:26:53.803Z,8.40
2023-02-04T22:29:29.435Z,8.40
2023-02-04T22:31:57.328Z,8.40
2023-02-04T22:34:25.534Z,8.40
2023-02-04T22:36:53.921Z,8.40
2023-02-04T22:39:22.004Z,8.40
2023-02-04T22:41:50.865Z,8.40
2023-02-04T22:44:21.450Z,8.40
2023-02-04T22:46:52.356Z,8.40
2023-02-04T22:49:22.560Z,8.40
2023-02-04T22:51:51.489Z,8.40
2023-02-04T22:54:22.047Z,8.40
2023-02-04T22:56:50.167Z,8.40
2023-02-04T22:59:22.037Z,8.40
2023-02-04T23:01:58.794Z,8.40
2023-02-04T23:04:26.721Z,8.40
2023-02-04T23:06:54.130Z,8.40
2023-02-04T23:09:24.444Z,8.40
2023-02-04T23:11:52.829Z,8.40
2023-02-04T23:14:21.055Z,8.30
2023-02-04T23:16:49.236Z,8.30
2023-02-04T23:19:20.263Z,8.30
2023-02-04T23:21:49.995Z,8.30
2023-02-04T23:24:17.747Z,8.30
2023-02-04T23:26:45.094Z,8.30
2023-02-04T23:29:12.356Z,8.30
2023-02-04T23:31:39.852Z,8.30
2023-02-04T23:34:08.311Z,8.30
2023-02-04T23:36:37.493Z,8.30
2023-02-04T23:39:05.505Z,8.30
2023-02-04T23:41:33.077Z,8.20
2023-02-04T23:44:00.830Z,8.20
2023-02-04T23:46:30.902Z,8.20
2023-02-04T23:48:58.168Z,8.20
2023-02-04T23:51:27.832Z,8.20
2023-02-04T23:54:03.790Z,8.20
2023-02-04T23:56:33.904Z,8.20
2023-02-04T23:59:01.753Z,8.20
